Kalender

Activiteiten 2019

Dag Datum Uur Activiteit
ZO 13/01/2019 10.00 u Algemene vergadering sportleden in de zaal van 'café de kroon'
ZO 17/02/2019 08.30 u MTB toertocht en Nieuwjaarsreceptie - 'start aan de Platte Tube'
ZO 31/03/2019 nog te bepalen Fietsstage Mojacar - Spanje: van 31/3 tot 7/4
ZA 29/06/2019 19.00 u BBQ
VR 05/07/2019 nog te bepalen Meerdaagse fietsreis naar Friesland: 5/07 tot 9/07
ZA 12/10/2019 8.00 u tot 14.00 u Mountainbike- & Cyclotoertocht Oekene
ZA 19/10/2019 Namiddag & Avondprogramma Kampioenenviering Wielertoeristen
VR 29/11/2019 19.00 u Benefiet Kaarting
ZA 30/11/2019 19.00 u Benefiet Kaarting
ZO 01/12/2019 9.00u Benefiet Kaarting

Vrije trainingsritten 2019

Overzicht
Voor en na de kampioenschapsritten en tijdens het verlof worden in onderlinge afspraak iedere zondag trainingsritten gereden voor A-, B- en C-ploeg. We vertrekken normaal om 8.30u, in december en januari vertrekken we om 9.00u aan café de platte tube in Oekene.
In onderlinge afspraak wordt het hele jaar door ook gereden op dinsdagnamiddag. We vertrekken om 13.00u aan de kerk in Ledegem.
Men kan ook vrij deelnemen aan toertochten voor wielertoeristen of mountainbikers georganiseerd door andere clubs of bonden.
Fietsstage in Mojacar in Spanje: van 31/3 tot 7/4/19 - meer info via info@wielercluboekene.be
Meerdaagse fietsreis naar Friesland: 5/07 tot 9/07 - meer info via info@wielercluboekene.be

Ritten Wielertoeristen 2019


Dag Datum Ploeg Uur Activiteit KM Gereden KM Gem. snelheid Uitstapleider Deelnemers
ZO 03/03/2019 Ploeg A 8.30u Schuiferskappelle 70 68 29,0 Gregory 12
ZO 03/03/2019 Ploeg B 8.30u St.-Jan 55 57 25,5 Marcel 16
ZO 03/03/2019 Ploeg C 9.30u Beveren 25 24 20,5 Carlos Oekene 10
ZO 10/03/2019 Ploeg A 8.30u Povre Leute 75 73 27,3 Dirk 13
ZO 10/03/2019 Ploeg B 8.30u Saviorit 55 61 24,4 Bert 13
ZO 10/03/2019 Ploeg C 9.00u Steenbeekbostocht 31 32 19,7 Carlos Oekene 7
ZO 17/03/2019 Ploeg A 8.30u Pallingbeek 80 78 30,4 Cedric 16
ZO 17/03/2019 Ploeg B 8.30u De Polygone 60 61 26,8 Marcel 22
ZO 17/03/2019 Ploeg C 9.00u Ardooie-Gits 41 38 21,2 Carlos Oekene 13
ZO 24/03/2019 Ploeg A 8.30u Poggio 80 77 31,7 Gregory 19
ZO 24/03/2019 Ploeg B 8.30u Steenstraat 65 66 27,0 Bert & Kurt 24
ZO 24/03/2019 Ploeg C 9.00u Heule 48 46 21,8 Freddy 18
ZO 31/03/2019 Ploeg A 8.30u Dottenijs 80 78 29,2 Jo 16
ZO 31/03/2019 Ploeg B 8.30u Wingene 65 70 27,0 Frans 26
ZO 31/03/2019 Ploeg C 9.00u Staden-Westrozebeke 48 46 21,0 Patrick H. 15
ZO 07/04/2019 Ploeg A 8.00u Tiegem 85 82 31,2 Jo 18
ZO 07/04/2019 Ploeg B 8.00u Veldegem 70 68 28,0 Willy & Rik 25
ZO 07/04/2019 Ploeg C 9.00u Ledegem-Moorslede 47 49 22,2 Filiep 12
ZO 14/04/2019 Ploeg A 8.00u Kluisberg 90 90 31,2 Kenneth 14
ZO 14/04/2019 Ploeg B 8.00u Gottem 70 72 26,9 Patrik 23
ZO 14/04/2019 Ploeg C 9.00u Omgekeerde WRB 45 49 21,5 Patrick H. 12
ZO 21/04/2019 Ploeg A 8.00u Daisel Ommegang - Toertocht 85 93 31,0 Gregory 15
ZO 21/04/2019 Ploeg B 8.00u Keiem 80 83 28,1 Rik & Willy 18
ZO 21/04/2019 Ploeg C 9.00u Hooglede-Gits 48 54 22,5 Carlos Rumbeke 14
ZO 28/04/2019 Ploeg A 8.00u Le Quesnoy AB 85 82 27,6 Marcel 5
ZO 28/04/2019 Ploeg B 8.00u Quesnoy BA 80 82 27,6 Marcel 10
ZO 28/04/2019 Ploeg C 9.00u Menen 55 48 22,0 Freddy 8
ZO 05/05/2019 Ploeg A 7.30u Ter vate 95 94 31,7 Gregory 13
ZO 05/05/2019 Ploeg B 7.30u Zedelgem 85 97 27,0 Frans 18
ZO 05/05/2019 Ploeg C 8.30u Aarsele 56 56 22,3 Noël 11
ZO 12/05/2019 Ploeg A 7.30u Izegemse pijl - Toertocht 95 91 31,5 Uitgepijld 18
ZO 12/05/2019 Ploeg B 7.30u Nokere 85 85 27,6 Donald 14
ZO 12/05/2019 Ploeg C 8.30u Poelkapelle 50 55 22,3 Carlos Oekene 15
ZO 19/05/2019 Ploeg A 7.30u Ploegsteert 95 86 27,0 Dirk C 4
ZO 19/05/2019 Ploeg B 7.30u Ploegsteert (A-Ploeg) 85 86 27,2 Dirk C 10
ZO 19/05/2019 Ploeg C 8.30u Poelberg 50 55 22,0 Roger 8
ZO 26/05/2019 Ploeg A 7.30u Catsberg 100 120 32,0 Kenneth 18
ZO 26/05/2019 Ploeg B 7.30u Vinkt 80 82 27,1 Danny 24
ZO 26/05/2019 Ploeg C 8.30u Torhout 55 52 22,5 Freddy 12
DO 30/05/2019 Ploeg A 7.30u Beveren - Toertocht 105 90 31,2 Uitgepijld 10
DO 30/05/2019 Ploeg B 7.30u Kemmelberg 90 89 27,0 Marcel 15
DO 30/05/2019 Ploeg C 8.30u Klein Harelbeke 56 56 22,7 Patrick H. 6
ZO 02/06/2019 Ploeg A 7.30u Vlaamse Ardennen 100 98 29,8 Jo 10
ZO 02/06/2019 Ploeg B 7.30u Wijtschate 90 83 27,0 Willy & Rik 21
ZO 02/06/2019 Ploeg C 8.30u Ieper (Sint-Jan) 55 58 22,5 Noël 12
ZO 09/06/2019 Ploeg A 7.30u Roesbrugge 110 106 33,0 Gregory 15
ZO 09/06/2019 Ploeg B 7.30u Kluisberg 90 89 27,2 Frans 19
ZO 09/06/2019 Ploeg C 8.30u Zwevezele 51 58 23,1 Roger 12
ZO 16/06/2019 Ploeg A 7.30u Hansbeke 105 104 31,9 Jo 21
ZO 16/06/2019 Ploeg B 7.30u Ravensberg 95 100 27,7 Kurt 23
ZO 16/06/2019 Ploeg C 8.30u Huynsbossen 55 55 22,0 Patrick H. 13
ZO 23/06/2019 Ploeg A 7.00u Daguitstap Halle A+B 200 205 26,9 Marcel 5
ZO 23/06/2019 Ploeg B 7.00u Daguitstap Halle B+A 200 205 26,9 Marcel 9
ZO 23/06/2019 Ploeg C 8.30u Beselare 52 58 22,0 Filiep 13
ZO 30/06/2019 Ploeg A 8.30u Kemmel 85 85 31,3 Gianni 12
ZO 30/06/2019 Ploeg B 8.30u Stuivekenskerke 70 75 28,0 Donald 13
ZO 30/06/2019 Ploeg C 8.30u Aalbeke 55 54 22,0 Freddy 10
ZO 07/07/2019 Ploeg A 7.30u Freddy Maertens Cycling Tour A 105 110 32,4 Uitgepijld 17
ZO 07/07/2019 Ploeg B 7.30u Westvleteren 90 93 28,1 Frans 17
ZO 07/07/2019 Ploeg C 8.30u Houthulst1 55 62 22,4 Noël 10
ZO 14/07/2019 Ploeg A 7.30u Wannegem-Lede 100 96 30,2 Dirk C 16
ZO 14/07/2019 Ploeg B 7.30u Nieuwkerke 90 92 27,6 Donald 20
ZO 14/07/2019 Ploeg C 8.30u Tielt 55 55 22,0 Freddy 13
ZO 11/08/2019 Ploeg A 8.00u Plugstreet 95 96 30,4 Gregory 11
ZO 11/08/2019 Ploeg B 8.00u La Vigne 75 80 28,6 Kurt 20
ZO 11/08/2019 Ploeg C 8.30u Wervick-Sud 56 58 22,4 Willy 12
DO 15/08/2019 Ploeg A 8.00u Steenkerke 95 105 30,5 Dirk C 6
DO 15/08/2019 Ploeg B 8.00u Maria-Aalter 85 88 27,5 Marcel 12
DO 15/08/2019 Ploeg C 8.00u Daguitstap C-ploeg 120 123 20,5 Noël 10
ZO 18/08/2019 Ploeg A 8.00u Ravensberg 95 68 28,5 Gregory 4
ZO 18/08/2019 Ploeg B 8.00u Nevele1 85 0 Willy & Rik
ZO 18/08/2019 Ploeg C 8.30u Lendelede-Izegem 55 26 22,5 Filiep 6
ZO 25/08/2019 Ploeg A 8.00u West-Vlaanderens-Mooiste A 85 80 30,0 Uitgepijld 15
ZO 25/08/2019 Ploeg B 8.00u West-Vlaanderens-Mooiste B 85 80 27,0 Uitgepijld 20
ZO 25/08/2019 Ploeg C 8.30u West-Vlaanderens-Mooiste C 50 54 22,0 Uitgepijld 10
ZO 01/09/2019 Ploeg A 8.00u Templeuve 90 88 29,6 Dirk C 7
ZO 01/09/2019 Ploeg B 8.00u Avelgem 80 79 27,0 Danny 19
ZO 01/09/2019 Ploeg C 8.30u Lauwe 57 56 22,6 Noël 11
ZO 08/09/2019 Ploeg A 8.00u Zedelgem 90 83 29,0 Gregory & Dirk 9
ZO 08/09/2019 Ploeg B 8.00u Nevele 80 85 28,0 Rik & Willy 16
ZO 08/09/2019 Ploeg C 8.30u Wakken 57 54 22,6 Peter 11
ZO 15/09/2019 Ploeg A 8.00u Maria-Aalter 85 86 32,0 Jan 13
ZO 15/09/2019 Ploeg B 8.00u Poucke 80 74 28,1 Marcel 22
ZO 15/09/2019 Ploeg C 8.30u Zarren-Linde 55 57 23,2 Noël 12
ZO 22/09/2019 Ploeg A 8.00u Bovekerke 80 83 31,8 Bert 19
ZO 22/09/2019 Ploeg B 8.00u De Blankaert 75 78 28,2 Kurt 16
ZO 22/09/2019 Ploeg C 8.30u Ieper 2 55 56 23,1 Freddy 11
ZO 29/09/2019 Ploeg A 8.30u Slotrit AB en eindeseizoensreceptie 45 40 26,0 Donald 8
ZO 29/09/2019 Ploeg B 8.30u Slotrit BA en eindeseizoensreceptie 45 40 26,0 Donald 13
ZO 29/09/2019 Ploeg C 8.30u Slotrit C en eindeseizoensreceptie 40 41 20,5 Carlos Oekene 9
TOTAAL 6803 6720
GEMIDDELDE 75.6 75.5 NaN 13.9

Ritten MTB 2019


Dag Datum Naam VTT Afstanden I&S Plaats
ZO 17/02/2019 Nieuwjaarsrit MTB en receptie 8.30u Café de Platte Tube, Oekene
ZO 05/05/2019 Alternatieve Paris-Roubaix MTB 6.00u Café de Platte Tube, Oekene
ZO 07/07/2019 Freddy Maertens Cycling MTB Bouwstock Dewulf, Beitem
ZO 25/08/2019 West-Vlaanderens-Mooiste MTB Expohallen, Roeselare
ZA 12/10/2019 MTB toertocht Oekene 25-35-45-55 8.00-14.00u Parochiaal centrum de Regenboog, Oekene